createdAt,value
2022-11-14T00:00:14.081Z,93.78
2022-11-14T00:01:14.101Z,93.78
2022-11-14T00:02:14.055Z,93.78
2022-11-14T00:03:14.185Z,93.78
2022-11-14T00:04:14.037Z,93.78
2022-11-14T00:05:14.034Z,93.68
2022-11-14T00:06:14.000Z,93.68
2022-11-14T00:07:14.068Z,93.68
2022-11-14T00:08:14.013Z,93.68
2022-11-14T00:09:13.962Z,93.68
2022-11-14T00:10:13.976Z,93.68
2022-11-14T00:11:13.918Z,93.68
2022-11-14T00:12:13.931Z,93.68
2022-11-14T00:13:13.931Z,93.68
2022-11-14T00:14:13.918Z,93.68
2022-11-14T00:15:13.891Z,93.57
2022-11-14T00:16:13.897Z,93.68
2022-11-14T00:17:13.847Z,93.57
2022-11-14T00:18:13.856Z,93.62
2022-11-14T00:19:13.836Z,93.51
2022-11-14T00:20:13.818Z,93.51
2022-11-14T00:21:13.806Z,93.51
2022-11-14T00:22:13.798Z,93.51
2022-11-14T00:23:13.766Z,93.51
2022-11-14T00:24:13.802Z,93.51
2022-11-14T00:25:13.872Z,93.62
2022-11-14T00:26:13.732Z,93.62
2022-11-14T00:27:13.910Z,93.62
2022-11-14T00:28:13.734Z,93.62
2022-11-14T00:29:13.708Z,93.62
2022-11-14T00:31:29.735Z,93.72
2022-11-14T00:32:23.567Z,93.82
2022-11-14T00:33:23.608Z,93.82
2022-11-14T00:34:23.697Z,93.82
2022-11-14T00:35:23.573Z,93.93
2022-11-14T00:36:23.600Z,93.93
2022-11-14T00:37:23.551Z,93.93
2022-11-14T00:38:23.495Z,94.03
2022-11-14T00:39:23.545Z,94.03
2022-11-14T00:40:23.472Z,94.03
2022-11-14T00:41:23.485Z,94.03
2022-11-14T00:42:23.456Z,94.03
2022-11-14T00:43:23.477Z,94.03
2022-11-14T00:44:23.425Z,94.13
2022-11-14T00:45:23.423Z,94.23
2022-11-14T00:46:23.382Z,94.13
2022-11-14T00:47:23.392Z,94.23
2022-11-14T00:48:23.394Z,94.23
2022-11-14T00:49:23.360Z,94.23
2022-11-14T00:50:23.354Z,94.23
2022-11-14T00:51:23.329Z,94.23
2022-11-14T00:52:23.353Z,94.23
2022-11-14T00:53:23.308Z,94.13
2022-11-14T00:54:23.304Z,94.13
2022-11-14T00:55:23.278Z,94.23
2022-11-14T00:56:23.273Z,94.13
2022-11-14T00:57:23.273Z,94.13
2022-11-14T00:58:23.229Z,94.13
2022-11-14T00:59:23.233Z,94.03
2022-11-14T01:00:23.244Z,93.93
2022-11-14T01:01:23.348Z,94.03
2022-11-14T01:02:23.201Z,93.93
2022-11-14T01:03:23.199Z,93.93
2022-11-14T01:04:23.188Z,93.82
2022-11-14T01:05:23.147Z,93.72
2022-11-14T01:06:23.127Z,93.62
2022-11-14T01:07:23.116Z,93.62
2022-11-14T01:08:23.112Z,93.55
2022-11-14T01:09:23.188Z,93.45
2022-11-14T01:10:23.107Z,93.35
2022-11-14T01:11:23.070Z,93.45
2022-11-14T01:12:23.055Z,93.45
2022-11-14T01:13:23.079Z,93.45
2022-11-14T01:14:23.030Z,93.35
2022-11-14T01:15:23.045Z,93.35
2022-11-14T01:16:23.029Z,93.35
2022-11-14T01:17:23.008Z,93.35
2022-11-14T01:18:23.010Z,93.35
2022-11-14T01:19:22.988Z,93.35
2022-11-14T01:20:22.951Z,93.35
2022-11-14T01:21:22.958Z,93.35
2022-11-14T01:22:22.946Z,93.24
2022-11-14T01:23:22.934Z,93.24
2022-11-14T01:24:22.902Z,93.24
2022-11-14T01:25:22.897Z,93.14
2022-11-14T01:26:22.895Z,93.14
2022-11-14T01:27:22.875Z,93.24
2022-11-14T01:28:22.862Z,93.18
2022-11-14T01:29:22.840Z,93.18
2022-11-14T01:30:22.822Z,93.08
2022-11-14T01:31:22.833Z,93.08
2022-11-14T01:32:22.812Z,93.08
2022-11-14T01:33:22.805Z,93.08
2022-11-14T01:34:22.781Z,92.97
2022-11-14T01:35:22.762Z,92.97
2022-11-14T01:36:22.765Z,93.08
2022-11-14T01:37:22.765Z,92.97
2022-11-14T01:38:22.730Z,92.97
2022-11-14T01:39:22.736Z,92.97
2022-11-14T01:40:22.724Z,92.97
2022-11-14T01:41:22.693Z,93.08
2022-11-14T01:42:26.934Z,92.97
2022-11-14T01:43:22.673Z,92.97
2022-11-14T01:44:22.640Z,92.97
2022-11-14T01:45:22.673Z,92.87
2022-11-14T01:46:22.633Z,92.87
2022-11-14T01:47:22.623Z,92.91
2022-11-14T01:48:22.596Z,93.02
2022-11-14T01:49:22.577Z,93.02
2022-11-14T01:50:22.581Z,93.02
2022-11-14T01:51:22.568Z,92.91
2022-11-14T01:52:22.553Z,92.91
2022-11-14T01:53:22.528Z,92.91
2022-11-14T01:54:22.521Z,92.91
2022-11-14T01:55:22.517Z,92.91
2022-11-14T01:56:22.511Z,92.91
2022-11-14T01:57:22.490Z,92.91
2022-11-14T01:58:22.473Z,92.91
2022-11-14T01:59:22.453Z,92.81
2022-11-14T02:00:22.436Z,92.81
2022-11-14T02:01:22.506Z,92.71
2022-11-14T02:02:22.439Z,92.61
2022-11-14T02:03:22.407Z,92.61
2022-11-14T02:04:22.408Z,92.61
2022-11-14T02:05:22.386Z,92.61
2022-11-14T02:06:22.380Z,92.61
2022-11-14T02:07:22.419Z,92.61
2022-11-14T02:08:22.357Z,92.61
2022-11-14T02:09:22.338Z,92.65
2022-11-14T02:10:22.334Z,92.65
2022-11-14T02:11:22.304Z,92.55
2022-11-14T02:12:22.283Z,92.65
2022-11-14T02:13:22.297Z,92.65
2022-11-14T02:14:22.278Z,92.65
2022-11-14T02:15:22.251Z,92.76
2022-11-14T02:16:22.244Z,92.85
2022-11-14T02:17:29.447Z,92.85
2022-11-14T02:18:23.243Z,92.85
2022-11-14T02:19:22.193Z,92.85
2022-11-14T02:20:22.194Z,92.96
2022-11-14T02:21:22.177Z,92.96
2022-11-14T02:22:22.173Z,92.85
2022-11-14T02:23:22.146Z,92.85
2022-11-14T02:24:22.156Z,92.85
2022-11-14T02:25:22.111Z,92.96
2022-11-14T02:26:22.101Z,92.96
2022-11-14T02:27:22.115Z,92.96
2022-11-14T02:28:22.079Z,92.96
2022-11-14T02:29:22.063Z,92.96
2022-11-14T02:30:22.084Z,93.06
2022-11-14T02:31:22.036Z,93.06
2022-11-14T02:32:22.021Z,92.96
2022-11-14T02:33:22.001Z,92.96
2022-11-14T02:34:21.992Z,93.06
2022-11-14T02:35:22.002Z,93.06
2022-11-14T02:36:21.990Z,93.06
2022-11-14T02:37:21.973Z,93.16
2022-11-14T02:38:21.950Z,93.16
2022-11-14T02:39:21.949Z,93.16
2022-11-14T02:40:21.941Z,93.27
2022-11-14T02:41:21.938Z,93.16
2022-11-14T02:42:21.908Z,93.16
2022-11-14T02:43:21.891Z,93.16
2022-11-14T02:44:21.901Z,93.27
2022-11-14T02:45:21.878Z,93.27
2022-11-14T02:46:21.883Z,93.16
2022-11-14T02:47:21.840Z,93.16
2022-11-14T02:48:21.817Z,93.27
2022-11-14T02:49:21.809Z,93.16
2022-11-14T02:50:21.830Z,93.27
2022-11-14T02:51:21.799Z,93.16
2022-11-14T02:52:21.839Z,93.27
2022-11-14T02:53:21.755Z,93.16
2022-11-14T02:54:21.759Z,93.16
2022-11-14T02:55:21.741Z,93.27
2022-11-14T02:56:21.736Z,93.37
2022-11-14T02:57:21.705Z,93.48
2022-11-14T02:58:21.709Z,93.48
2022-11-14T02:59:21.684Z,93.43
2022-11-14T03:00:21.676Z,93.43
2022-11-14T03:01:22.039Z,93.54
2022-11-14T03:02:21.643Z,93.64
2022-11-14T03:03:21.667Z,93.74
2022-11-14T03:04:21.640Z,93.74
2022-11-14T03:05:21.615Z,93.74
2022-11-14T03:06:21.619Z,93.85
2022-11-14T03:07:21.656Z,93.95
2022-11-14T03:08:21.564Z,93.95
2022-11-14T03:09:21.546Z,94.06
2022-11-14T03:10:21.533Z,94.16
2022-11-14T03:11:21.524Z,94.26
2022-11-14T03:12:21.548Z,94.26
2022-11-14T03:13:21.493Z,94.26
2022-11-14T03:14:21.491Z,94.26
2022-11-14T03:15:21.482Z,94.31
2022-11-14T03:16:21.474Z,94.31
2022-11-14T03:17:21.469Z,94.31
2022-11-14T03:18:21.474Z,94.20
2022-11-14T03:19:21.435Z,94.20
2022-11-14T03:20:21.437Z,94.20
2022-11-14T03:21:21.422Z,94.10
2022-11-14T03:22:21.409Z,94.20
2022-11-14T03:23:21.381Z,94.10
2022-11-14T03:24:21.363Z,94.10
2022-11-14T03:25:21.340Z,93.99
2022-11-14T03:26:21.352Z,93.99
2022-11-14T03:27:21.351Z,94.10
2022-11-14T03:28:21.340Z,94.10
2022-11-14T03:29:21.314Z,94.10
2022-11-14T03:30:21.289Z,94.10
2022-11-14T03:31:21.278Z,94.20
2022-11-14T03:32:21.271Z,94.20
2022-11-14T03:33:21.238Z,94.20
2022-11-14T03:34:21.258Z,94.31
2022-11-14T03:35:21.219Z,94.26
2022-11-14T03:36:21.199Z,94.26
2022-11-14T03:37:21.210Z,94.26
2022-11-14T03:38:21.209Z,94.26
2022-11-14T03:39:21.231Z,94.26
2022-11-14T03:40:21.158Z,94.16
2022-11-14T03:41:21.159Z,94.06
2022-11-14T03:42:21.134Z,94.06
2022-11-14T03:43:21.150Z,94.06
2022-11-14T03:44:21.120Z,94.06
2022-11-14T03:45:21.128Z,93.95
2022-11-14T03:46:21.103Z,93.95
2022-11-14T03:47:21.066Z,93.85
2022-11-14T03:48:21.077Z,93.74
2022-11-14T03:49:21.062Z,93.64
2022-11-14T03:50:21.056Z,93.64
2022-11-14T03:51:21.020Z,93.54
2022-11-14T03:52:21.005Z,93.54
2022-11-14T03:53:20.985Z,93.54
2022-11-14T03:54:21.002Z,93.43
2022-11-14T03:55:20.973Z,93.43
2022-11-14T03:56:20.963Z,93.43
2022-11-14T03:57:21.082Z,93.33
2022-11-14T03:58:20.933Z,93.23
2022-11-14T03:59:20.917Z,93.23
2022-11-14T04:00:20.910Z,93.23
2022-11-14T04:01:20.942Z,93.23
2022-11-14T04:02:20.896Z,93.23
2022-11-14T04:03:20.896Z,93.23
2022-11-14T04:04:20.872Z,93.23
2022-11-14T04:05:20.842Z,93.23
2022-11-14T04:06:20.843Z,93.23
2022-11-14T04:07:20.895Z,93.02
2022-11-14T04:08:20.802Z,93.02
2022-11-14T04:09:20.809Z,93.02
2022-11-14T04:10:20.798Z,92.96
2022-11-14T04:11:20.751Z,92.96
2022-11-14T04:12:20.780Z,92.96
2022-11-14T04:13:20.745Z,93.06
2022-11-14T04:14:20.754Z,92.96
2022-11-14T04:15:20.822Z,92.96
2022-11-14T04:16:20.712Z,92.96
2022-11-14T04:17:20.701Z,92.96
2022-11-14T04:18:20.713Z,92.96
2022-11-14T04:19:20.662Z,92.91
2022-11-14T04:20:20.646Z,93.02
2022-11-14T04:21:20.642Z,93.02
2022-11-14T04:22:20.630Z,93.02
2022-11-14T04:23:21.693Z,93.02
2022-11-14T04:24:20.609Z,93.12
2022-11-14T04:25:20.579Z,93.12
2022-11-14T04:26:20.569Z,93.12
2022-11-14T04:27:20.573Z,93.02
2022-11-14T04:28:20.555Z,93.02
2022-11-14T04:29:20.571Z,93.02
2022-11-14T04:30:20.517Z,93.12
2022-11-14T04:31:20.521Z,93.02
2022-11-14T04:32:20.507Z,92.91
2022-11-14T04:33:20.488Z,92.81
2022-11-14T04:34:20.477Z,92.61
2022-11-14T04:35:20.491Z,92.71
2022-11-14T04:36:20.437Z,92.50
2022-11-14T04:37:20.439Z,92.40
2022-11-14T04:38:20.416Z,92.30
2022-11-14T04:39:20.406Z,92.30
2022-11-14T04:40:20.426Z,92.30
2022-11-14T04:41:20.387Z,92.30
2022-11-14T04:42:20.398Z,92.30
2022-11-14T04:43:20.376Z,92.40
2022-11-14T04:44:20.345Z,92.30
2022-11-14T04:45:20.438Z,92.19
2022-11-14T04:46:20.337Z,92.19
2022-11-14T04:47:20.325Z,92.30
2022-11-14T04:48:20.327Z,92.30
2022-11-14T04:49:20.307Z,92.19
2022-11-14T04:50:20.300Z,92.34
2022-11-14T04:51:20.293Z,92.34
2022-11-14T04:52:20.259Z,92.34
2022-11-14T04:53:20.249Z,92.24
2022-11-14T04:54:20.226Z,92.34
2022-11-14T04:55:20.226Z,92.30
2022-11-14T04:56:20.205Z,92.34
2022-11-14T04:57:20.204Z,92.30
2022-11-14T04:58:20.204Z,92.34
2022-11-14T04:59:21.282Z,92.24
2022-11-14T05:00:20.138Z,92.24
2022-11-14T05:01:20.164Z,92.34
2022-11-14T05:02:20.144Z,92.24
2022-11-14T05:03:20.122Z,92.34
2022-11-14T05:04:20.103Z,92.24
2022-11-14T05:05:20.081Z,92.34
2022-11-14T05:06:20.059Z,92.24
2022-11-14T05:07:20.141Z,92.24
2022-11-14T05:08:20.051Z,92.34
2022-11-14T05:09:20.025Z,92.34
2022-11-14T05:10:20.017Z,92.44
2022-11-14T05:11:20.880Z,92.55
2022-11-14T05:12:20.008Z,92.44
2022-11-14T05:13:19.978Z,92.40
2022-11-14T05:14:19.984Z,92.40
2022-11-14T05:15:19.959Z,92.50
2022-11-14T05:16:19.949Z,92.50
2022-11-14T05:17:19.927Z,92.50
2022-11-14T05:18:19.907Z,92.50
2022-11-14T05:19:19.920Z,92.44
2022-11-14T05:20:19.901Z,92.65
2022-11-14T05:21:19.872Z,92.61
2022-11-14T05:22:19.865Z,92.65
2022-11-14T05:23:19.851Z,92.65
2022-11-14T05:24:19.866Z,92.76
2022-11-14T05:25:19.829Z,92.85
2022-11-14T05:26:19.829Z,92.81
2022-11-14T05:27:19.803Z,92.81
2022-11-14T05:28:19.777Z,92.81
2022-11-14T05:29:19.766Z,92.91
2022-11-14T05:30:19.788Z,92.91
2022-11-14T05:31:19.750Z,92.91
2022-11-14T05:32:19.747Z,92.96
2022-11-14T05:33:19.717Z,93.06
2022-11-14T05:34:19.695Z,93.06
2022-11-14T05:35:19.707Z,93.06
2022-11-14T05:36:19.688Z,93.06
2022-11-14T05:37:19.677Z,93.06
2022-11-14T05:38:19.671Z,93.06
2022-11-14T05:39:19.658Z,93.12
2022-11-14T05:40:19.660Z,93.12
2022-11-14T05:41:19.623Z,93.12
2022-11-14T05:42:19.626Z,93.12
2022-11-14T05:43:19.613Z,93.16
2022-11-14T05:44:19.595Z,93.16
2022-11-14T05:45:19.596Z,93.27
2022-11-14T05:46:19.597Z,93.23
2022-11-14T05:47:19.553Z,93.23
2022-11-14T05:48:19.531Z,93.23
2022-11-14T05:49:22.146Z,93.12
2022-11-14T05:50:19.526Z,93.12
2022-11-14T05:51:19.491Z,93.02
2022-11-14T05:52:19.480Z,93.02
2022-11-14T05:53:19.469Z,93.02
2022-11-14T05:54:19.468Z,92.81
2022-11-14T05:55:24.575Z,92.81
2022-11-14T05:56:20.447Z,92.81
2022-11-14T05:57:19.410Z,92.71
2022-11-14T05:58:19.406Z,92.71
2022-11-14T05:59:19.389Z,92.61
2022-11-14T06:00:19.376Z,92.61
2022-11-14T06:01:19.379Z,92.61
2022-11-14T06:02:19.449Z,92.61
2022-11-14T06:03:19.338Z,92.61
2022-11-14T06:04:19.328Z,92.61
2022-11-14T06:05:19.309Z,92.61
2022-11-14T06:06:19.306Z,92.61
2022-11-14T06:07:20.495Z,92.61
2022-11-14T06:08:19.301Z,92.61
2022-11-14T06:09:19.301Z,92.61
2022-11-14T06:10:19.248Z,92.61
2022-11-14T06:11:19.250Z,92.50
2022-11-14T06:12:19.255Z,92.50
2022-11-14T06:13:19.283Z,92.40
2022-11-14T06:14:19.239Z,92.40
2022-11-14T06:15:19.218Z,92.50
2022-11-14T06:16:19.220Z,92.50
2022-11-14T06:17:19.164Z,92.50
2022-11-14T06:18:19.157Z,92.50
2022-11-14T06:19:19.149Z,92.61
2022-11-14T06:20:19.137Z,92.50
2022-11-14T06:21:19.140Z,92.61
2022-11-14T06:22:19.095Z,92.61
2022-11-14T06:23:24.452Z,92.61
2022-11-14T06:24:20.089Z,92.71
2022-11-14T06:25:19.061Z,92.81
2022-11-14T06:26:19.044Z,92.81
2022-11-14T06:27:19.059Z,92.91
2022-11-14T06:28:19.028Z,92.81
2022-11-14T06:29:19.037Z,92.81
2022-11-14T06:30:18.994Z,92.71
2022-11-14T06:31:19.003Z,92.50
2022-11-14T06:32:18.971Z,92.50
2022-11-14T06:33:18.986Z,92.50
2022-11-14T06:34:18.969Z,92.61
2022-11-14T06:35:18.946Z,92.61
2022-11-14T06:36:18.927Z,92.61
2022-11-14T06:37:18.924Z,92.50
2022-11-14T06:38:18.900Z,92.40
2022-11-14T06:39:18.892Z,92.30
2022-11-14T06:40:18.870Z,92.19
2022-11-14T06:41:18.864Z,92.30
2022-11-14T06:42:18.846Z,92.30
2022-11-14T06:43:18.844Z,92.30
2022-11-14T06:44:18.848Z,92.30
2022-11-14T06:45:18.808Z,92.30
2022-11-14T06:46:18.791Z,92.30
2022-11-14T06:47:18.797Z,92.40
2022-11-14T06:48:18.782Z,92.40
2022-11-14T06:49:18.769Z,92.40
2022-11-14T06:50:18.760Z,92.40
2022-11-14T06:51:18.732Z,92.50
2022-11-14T06:52:18.710Z,92.50
2022-11-14T06:53:18.722Z,92.36
2022-11-14T06:54:18.724Z,92.36
2022-11-14T06:55:24.885Z,92.36
2022-11-14T06:56:19.668Z,92.36
2022-11-14T06:57:18.689Z,92.36
2022-11-14T06:58:18.647Z,92.36
2022-11-14T06:59:18.687Z,92.25
2022-11-14T07:00:18.641Z,92.15
2022-11-14T07:01:18.636Z,92.15
2022-11-14T07:02:21.891Z,92.25
2022-11-14T07:03:18.698Z,92.25
2022-11-14T07:04:18.601Z,92.36
2022-11-14T07:05:18.590Z,92.36
2022-11-14T07:06:18.628Z,92.36
2022-11-14T07:07:18.640Z,92.36
2022-11-14T07:08:21.259Z,92.36
2022-11-14T07:09:18.534Z,92.36
2022-11-14T07:10:18.519Z,92.36
2022-11-14T07:11:18.514Z,92.46
2022-11-14T07:12:18.474Z,92.57
2022-11-14T07:13:18.465Z,92.63
2022-11-14T07:14:18.436Z,92.52
2022-11-14T07:15:18.439Z,92.52
2022-11-14T07:16:18.449Z,92.32
2022-11-14T07:17:18.415Z,92.32
2022-11-14T07:18:18.417Z,92.11
2022-11-14T07:19:18.443Z,92.11
2022-11-14T07:20:18.387Z,92.11
2022-11-14T07:21:18.376Z,91.96
2022-11-14T07:22:18.352Z,91.96
2022-11-14T07:23:22.714Z,92.07
2022-11-14T07:24:18.339Z,91.96
2022-11-14T07:25:18.335Z,91.86
2022-11-14T07:26:18.305Z,91.75
2022-11-14T07:27:18.319Z,91.65
2022-11-14T07:28:18.284Z,91.61
2022-11-14T07:29:18.306Z,91.61
2022-11-14T07:30:18.270Z,91.71
2022-11-14T07:31:18.241Z,91.50
2022-11-14T07:32:18.236Z,91.40
2022-11-14T07:33:18.255Z,91.30
2022-11-14T07:34:18.205Z,91.30
2022-11-14T07:35:18.179Z,90.99
2022-11-14T07:36:18.160Z,90.68
2022-11-14T07:37:18.171Z,90.58
2022-11-14T07:38:18.167Z,90.68
2022-11-14T07:39:18.129Z,90.68
2022-11-14T07:40:18.121Z,90.78
2022-11-14T07:41:18.125Z,90.84
2022-11-14T07:42:18.083Z,90.84
2022-11-14T07:43:18.089Z,90.84
2022-11-14T07:44:18.072Z,90.84
2022-11-14T07:45:18.048Z,90.74
2022-11-14T07:46:18.127Z,90.74
2022-11-14T07:47:18.090Z,90.64
2022-11-14T07:48:18.144Z,90.64
2022-11-14T07:49:18.093Z,90.64
2022-11-14T07:50:20.581Z,90.64
2022-11-14T07:51:18.040Z,90.64
2022-11-14T07:52:18.011Z,90.74
2022-11-14T07:53:18.022Z,90.74
2022-11-14T07:54:17.983Z,90.74
2022-11-14T07:55:17.960Z,90.80
2022-11-14T07:56:17.943Z,90.70
2022-11-14T07:57:17.960Z,90.59
2022-11-14T07:58:17.949Z,90.70
2022-11-14T07:59:17.944Z,90.70
2022-11-14T08:00:17.902Z,90.59
2022-11-14T08:01:17.928Z,90.49
2022-11-14T08:02:17.890Z,90.49
2022-11-14T08:03:17.859Z,90.49
2022-11-14T08:04:17.881Z,90.59
2022-11-14T08:05:17.839Z,90.59
2022-11-14T08:06:17.813Z,90.59
2022-11-14T08:07:17.926Z,90.59
2022-11-14T08:08:17.830Z,90.49
2022-11-14T08:09:17.788Z,90.49
2022-11-14T08:10:17.825Z,90.49
2022-11-14T08:11:31.706Z,90.55
2022-11-14T08:12:18.754Z,90.45
2022-11-14T08:13:31.616Z,90.45
2022-11-14T08:14:18.726Z,90.45
2022-11-14T08:15:17.746Z,90.66
2022-11-14T08:16:17.819Z,90.66
2022-11-14T08:17:17.677Z,90.66
2022-11-14T08:18:17.686Z,90.35
2022-11-14T08:19:17.672Z,90.14
2022-11-14T08:20:17.655Z,90.14
2022-11-14T08:21:17.658Z,90.14
2022-11-14T08:22:17.616Z,90.04
2022-11-14T08:23:17.617Z,90.04
2022-11-14T08:24:17.598Z,89.94
2022-11-14T08:25:17.594Z,89.94
2022-11-14T08:26:17.626Z,90.14
2022-11-14T08:27:17.565Z,90.25
2022-11-14T08:28:17.542Z,90.14
2022-11-14T08:29:17.561Z,90.04
2022-11-14T08:30:17.551Z,90.04
2022-11-14T08:31:17.527Z,90.04
2022-11-14T08:32:17.487Z,89.94
2022-11-14T08:33:17.482Z,89.83
2022-11-14T08:34:17.465Z,90.04
2022-11-14T08:35:17.517Z,90.14
2022-11-14T08:36:17.442Z,90.14
2022-11-14T08:37:17.452Z,90.14
2022-11-14T08:38:17.441Z,90.04
2022-11-14T08:39:17.415Z,90.25
2022-11-14T08:40:17.412Z,90.25
2022-11-14T08:41:18.454Z,90.20
2022-11-14T08:42:17.392Z,90.51
2022-11-14T08:43:17.361Z,90.51
2022-11-14T08:44:17.345Z,90.41
2022-11-14T08:45:17.333Z,90.61
2022-11-14T08:46:17.330Z,90.61
2022-11-14T08:47:17.321Z,90.72
2022-11-14T08:48:17.292Z,90.72
2022-11-14T08:49:17.280Z,90.61
2022-11-14T08:50:17.290Z,90.61
2022-11-14T08:51:17.270Z,90.61
2022-11-14T08:52:17.257Z,90.51
2022-11-14T08:53:17.260Z,90.57
2022-11-14T08:54:17.215Z,90.67
2022-11-14T08:55:17.199Z,90.67
2022-11-14T08:56:17.180Z,90.67
2022-11-14T08:57:17.237Z,90.78
2022-11-14T08:58:17.178Z,90.67
2022-11-14T08:59:17.160Z,90.57
2022-11-14T09:00:17.163Z,90.57
2022-11-14T09:01:17.129Z,90.78
2022-11-14T09:02:17.117Z,90.67
2022-11-14T09:03:17.113Z,90.57
2022-11-14T09:04:17.262Z,90.47
2022-11-14T09:05:17.087Z,90.57
2022-11-14T09:06:17.057Z,90.57
2022-11-14T09:07:17.180Z,90.47
2022-11-14T09:08:17.025Z,90.57
2022-11-14T09:09:17.036Z,90.37
2022-11-14T09:10:17.006Z,90.37
2022-11-14T09:11:19.335Z,90.47
2022-11-14T09:12:18.047Z,90.37
2022-11-14T09:13:16.983Z,90.26
2022-11-14T09:14:17.030Z,90.16
2022-11-14T09:15:16.942Z,89.95
2022-11-14T09:16:16.933Z,90.06
2022-11-14T09:17:16.934Z,90.16
2022-11-14T09:18:16.925Z,90.26
2022-11-14T09:19:16.930Z,90.26
2022-11-14T09:20:16.883Z,90.37
2022-11-14T09:21:16.869Z,90.47
2022-11-14T09:22:16.852Z,90.47
2022-11-14T09:23:16.843Z,90.37
2022-11-14T09:24:17.625Z,90.37
2022-11-14T09:25:16.840Z,90.67
2022-11-14T09:26:16.802Z,90.78
2022-11-14T09:27:16.796Z,90.67
2022-11-14T09:28:16.784Z,90.88
2022-11-14T09:29:16.762Z,90.88
2022-11-14T09:30:16.802Z,90.99
2022-11-14T09:31:16.732Z,90.94
2022-11-14T09:32:16.752Z,90.99
2022-11-14T09:33:16.711Z,90.73
2022-11-14T09:34:16.701Z,90.64
2022-11-14T09:35:16.691Z,90.84
2022-11-14T09:36:16.681Z,90.64
2022-11-14T09:37:16.671Z,90.64
2022-11-14T09:38:16.671Z,90.64
2022-11-14T09:39:16.638Z,90.64
2022-11-14T09:40:16.610Z,90.73
2022-11-14T09:41:16.632Z,90.84
2022-11-14T09:42:17.485Z,90.84
2022-11-14T09:43:16.609Z,90.73
2022-11-14T09:44:20.477Z,90.84
2022-11-14T09:45:16.549Z,90.84
2022-11-14T09:46:16.561Z,90.94
2022-11-14T09:47:20.434Z,90.73
2022-11-14T09:48:16.510Z,90.73
2022-11-14T09:49:16.520Z,90.80
2022-11-14T09:50:16.478Z,90.94
2022-11-14T09:51:16.469Z,91.00
2022-11-14T09:52:16.468Z,91.21
2022-11-14T09:53:16.460Z,91.21
2022-11-14T09:54:16.429Z,91.21
2022-11-14T09:55:16.432Z,91.11
2022-11-14T09:56:16.407Z,91.00
2022-11-14T09:57:16.427Z,90.90
2022-11-14T09:58:16.387Z,90.90
2022-11-14T09:59:16.398Z,91.11
2022-11-14T10:00:16.356Z,91.00
2022-11-14T10:01:16.387Z,91.11
2022-11-14T10:02:16.400Z,91.00
2022-11-14T10:03:16.331Z,91.00
2022-11-14T10:04:16.305Z,91.00
2022-11-14T10:05:16.316Z,91.11
2022-11-14T10:06:16.289Z,91.17
2022-11-14T10:07:16.365Z,90.86
2022-11-14T10:08:16.255Z,90.66
2022-11-14T10:09:16.269Z,90.86
2022-11-14T10:10:16.249Z,91.17
2022-11-14T10:11:16.253Z,90.96
2022-11-14T10:12:16.271Z,90.86
2022-11-14T10:13:16.235Z,90.96
2022-11-14T10:14:16.177Z,91.17
2022-11-14T10:15:16.177Z,91.38
2022-11-14T10:16:16.170Z,91.38
2022-11-14T10:17:16.147Z,91.27
2022-11-14T10:18:16.161Z,91.17
2022-11-14T10:19:16.125Z,91.17
2022-11-14T10:20:16.118Z,90.96
2022-11-14T10:21:16.104Z,90.96
2022-11-14T10:22:16.082Z,90.96
2022-11-14T10:23:16.075Z,91.06
2022-11-14T10:24:16.054Z,91.17
2022-11-14T10:25:16.052Z,91.17
2022-11-14T10:26:16.054Z,90.86
2022-11-14T10:27:16.017Z,90.86
2022-11-14T10:28:16.000Z,90.86
2022-11-14T10:29:16.019Z,90.86
2022-11-14T10:30:15.987Z,91.06
2022-11-14T10:31:15.951Z,91.27
2022-11-14T10:32:16.021Z,91.17
2022-11-14T10:33:15.960Z,91.06
2022-11-14T10:34:15.919Z,91.06
2022-11-14T10:35:15.921Z,90.86
2022-11-14T10:36:15.897Z,91.02
2022-11-14T10:37:15.877Z,91.23
2022-11-14T10:38:15.877Z,91.23
2022-11-14T10:39:15.880Z,91.23
2022-11-14T10:40:15.849Z,91.23
2022-11-14T10:41:34.509Z,91.23
2022-11-14T10:42:16.839Z,91.23
2022-11-14T10:43:15.813Z,91.23
2022-11-14T10:44:15.827Z,91.02
2022-11-14T10:45:15.788Z,90.92
2022-11-14T10:46:15.794Z,90.81
2022-11-14T10:47:15.790Z,90.81
2022-11-14T10:48:15.748Z,90.92
2022-11-14T10:49:15.768Z,90.92
2022-11-14T10:50:15.708Z,91.02
2022-11-14T10:51:15.701Z,91.02
2022-11-14T10:52:15.701Z,90.72
2022-11-14T10:53:15.684Z,90.72
2022-11-14T10:54:15.681Z,90.61
2022-11-14T10:55:15.702Z,90.61
2022-11-14T10:56:15.717Z,90.41
2022-11-14T10:57:15.704Z,90.00
2022-11-14T10:58:15.800Z,90.00
2022-11-14T10:59:15.605Z,89.95
2022-11-14T11:00:15.603Z,90.06
2022-11-14T11:01:15.676Z,89.85
2022-11-14T11:02:15.576Z,89.85
2022-11-14T11:03:15.566Z,89.64
2022-11-14T11:04:15.681Z,89.34
2022-11-14T11:05:15.534Z,89.44
2022-11-14T11:06:15.515Z,89.13
2022-11-14T11:07:15.604Z,89.23
2022-11-14T11:08:36.613Z,89.34
2022-11-14T11:09:16.525Z,89.34
2022-11-14T11:10:15.475Z,89.34
2022-11-14T11:11:15.454Z,89.54
2022-11-14T11:12:15.508Z,89.54
2022-11-14T11:13:15.434Z,89.23
2022-11-14T11:14:15.415Z,89.23
2022-11-14T11:15:15.405Z,89.23
2022-11-14T11:16:15.400Z,89.03
2022-11-14T11:17:15.381Z,88.89
2022-11-14T11:18:15.384Z,88.89
2022-11-14T11:19:15.359Z,88.89
2022-11-14T11:20:15.372Z,88.98
2022-11-14T11:21:15.410Z,88.89
2022-11-14T11:22:15.312Z,88.47
2022-11-14T11:23:15.305Z,88.47
2022-11-14T11:24:15.325Z,88.68
2022-11-14T11:25:15.321Z,88.78
2022-11-14T11:26:15.261Z,88.57
2022-11-14T11:27:15.258Z,88.68
2022-11-14T11:28:15.261Z,88.78
2022-11-14T11:29:15.218Z,88.47
2022-11-14T11:30:15.230Z,88.37
2022-11-14T11:31:15.202Z,88.27
2022-11-14T11:32:15.200Z,88.27
2022-11-14T11:33:15.171Z,88.47
2022-11-14T11:34:15.188Z,88.47
2022-11-14T11:35:15.189Z,88.37
2022-11-14T11:36:15.143Z,88.17
2022-11-14T11:37:15.195Z,88.27
2022-11-14T11:38:15.985Z,88.37
2022-11-14T11:39:15.121Z,88.37
2022-11-14T11:40:15.165Z,88.47
2022-11-14T11:41:42.413Z,88.37
2022-11-14T11:42:16.067Z,88.47
2022-11-14T11:44:16.086Z,88.33
2022-11-14T11:45:15.048Z,88.33
2022-11-14T11:46:15.038Z,88.33
2022-11-14T11:47:14.997Z,88.43
2022-11-14T11:48:14.987Z,88.12
2022-11-14T11:49:15.017Z,88.23
2022-11-14T11:50:14.968Z,88.23
2022-11-14T11:51:14.958Z,88.12
2022-11-14T11:52:14.926Z,88.23
2022-11-14T11:53:14.917Z,88.33
2022-11-14T11:54:14.914Z,88.23
2022-11-14T11:55:14.915Z,88.12
2022-11-14T11:56:14.993Z,88.12
2022-11-14T11:57:18.639Z,88.12
2022-11-14T11:58:15.856Z,88.12
2022-11-14T11:59:14.847Z,88.02
2022-11-14T12:00:15.011Z,88.12
2022-11-14T12:01:15.075Z,88.02
2022-11-14T12:02:14.839Z,87.92
2022-11-14T12:03:31.961Z,88.12
2022-11-14T12:04:15.845Z,88.12
2022-11-14T12:05:14.764Z,88.02
2022-11-14T12:06:14.804Z,88.02
2022-11-14T12:07:14.800Z,87.92
2022-11-14T12:08:18.625Z,88.12
2022-11-14T12:09:15.794Z,88.12
2022-11-14T12:10:14.733Z,88.23
2022-11-14T12:11:14.706Z,88.43
2022-11-14T12:12:14.681Z,88.23
2022-11-14T12:13:14.677Z,88.23
2022-11-14T12:14:14.715Z,87.92
2022-11-14T12:15:14.622Z,88.02
2022-11-14T12:16:14.650Z,88.02
2022-11-14T12:17:14.680Z,88.02
2022-11-14T12:18:14.601Z,88.02
2022-11-14T12:19:14.707Z,87.92
2022-11-14T12:20:14.568Z,88.12
2022-11-14T12:21:14.653Z,88.39
2022-11-14T12:22:14.713Z,88.59
2022-11-14T12:23:14.541Z,88.49
2022-11-14T12:24:14.530Z,88.39
2022-11-14T12:25:14.561Z,88.29
2022-11-14T12:26:14.552Z,88.18
2022-11-14T12:27:14.610Z,88.18
2022-11-14T12:28:14.503Z,88.18
2022-11-14T12:29:14.531Z,88.08
2022-11-14T12:30:14.559Z,88.08
2022-11-14T12:31:14.439Z,88.18
2022-11-14T12:32:14.452Z,88.18
2022-11-14T12:33:14.458Z,88.12
2022-11-14T12:34:14.410Z,88.43
2022-11-14T12:35:14.462Z,88.64
2022-11-14T12:36:14.420Z,88.53
2022-11-14T12:37:14.409Z,88.59
2022-11-14T12:38:14.348Z,88.33
2022-11-14T12:39:14.405Z,88.33
2022-11-14T12:40:14.312Z,88.39
2022-11-14T12:41:14.315Z,88.59
2022-11-14T12:42:14.308Z,88.59
2022-11-14T12:43:14.324Z,88.49
2022-11-14T12:44:14.322Z,88.59
2022-11-14T12:45:14.277Z,88.70
2022-11-14T12:46:14.248Z,88.70
2022-11-14T12:47:14.237Z,88.80
2022-11-14T12:48:14.214Z,88.70
2022-11-14T12:49:14.232Z,88.59
2022-11-14T12:50:14.253Z,88.59
2022-11-14T12:51:14.225Z,88.70
2022-11-14T12:52:14.188Z,88.80
2022-11-14T12:53:14.158Z,88.90
2022-11-14T12:54:14.166Z,88.70